sensor_id;sensor_type;location;lat;lon;timestamp;pressure;altitude;pressure_sealevel;temperature;humidity
66381;BME280;53177;52.648;1.214;2023-08-20T00:01:33;101313.25;;;16.90;93.93
66381;BME280;53177;52.648;1.214;2023-08-20T00:03:59;101315.56;;;16.99;94.23
66381;BME280;53177;52.648;1.214;2023-08-20T00:06:36;101313.06;;;16.95;94.43
66381;BME280;53177;52.648;1.214;2023-08-20T00:09:07;101317.53;;;16.71;95.79
66381;BME280;53177;52.648;1.214;2023-08-20T00:11:36;101318.66;;;16.66;96.20
66381;BME280;53177;52.648;1.214;2023-08-20T00:14:04;101317.72;;;16.67;96.25
66381;BME280;53177;52.648;1.214;2023-08-20T00:16:30;101323.91;;;16.44;98.18
66381;BME280;53177;52.648;1.214;2023-08-20T00:19:01;101327.75;;;16.37;98.68
66381;BME280;53177;52.648;1.214;2023-08-20T00:21:33;101337.97;;;16.24;99.51
66381;BME280;53177;52.648;1.214;2023-08-20T00:24:02;101336.78;;;16.33;98.97
66381;BME280;53177;52.648;1.214;2023-08-20T00:26:33;101339.66;;;16.27;99.30
66381;BME280;53177;52.648;1.214;2023-08-20T00:29:06;101345.34;;;16.18;100.00
66381;BME280;53177;52.648;1.214;2023-08-20T00:31:34;101347.50;;;16.31;98.82
66381;BME280;53177;52.648;1.214;2023-08-20T00:34:02;101352.53;;;16.40;98.36
66381;BME280;53177;52.648;1.214;2023-08-20T00:36:34;101359.84;;;16.34;98.76
66381;BME280;53177;52.648;1.214;2023-08-20T00:39:06;101356.66;;;16.24;100.00
66381;BME280;53177;52.648;1.214;2023-08-20T00:41:34;101359.09;;;16.30;99.41
66381;BME280;53177;52.648;1.214;2023-08-20T00:44:06;101357.47;;;16.26;99.92
66381;BME280;53177;52.648;1.214;2023-08-20T00:46:37;101366.41;;;16.25;100.00
66381;BME280;53177;52.648;1.214;2023-08-20T00:49:06;101359.97;;;16.31;99.51
66381;BME280;53177;52.648;1.214;2023-08-20T00:51:40;101358.41;;;16.25;100.00
66381;BME280;53177;52.648;1.214;2023-08-20T00:54:08;101355.91;;;16.21;99.84
66381;BME280;53177;52.648;1.214;2023-08-20T00:56:37;101366.09;;;16.10;100.00
66381;BME280;53177;52.648;1.214;2023-08-20T00:59:06;101366.88;;;16.12;100.00
66381;BME280;53177;52.648;1.214;2023-08-20T01:01:35;101369.81;;;16.04;100.00
66381;BME280;53177;52.648;1.214;2023-08-20T01:04:03;101367.38;;;15.98;100.00
66381;BME280;53177;52.648;1.214;2023-08-20T01:09:52;101370.09;;;15.96;100.00
66381;BME280;53177;52.648;1.214;2023-08-20T01:12:25;101372.81;;;15.95;100.00
66381;BME280;53177;52.648;1.214;2023-08-20T01:14:57;101369.91;;;16.02;100.00
66381;BME280;53177;52.648;1.214;2023-08-20T01:17:25;101377.50;;;15.88;100.00
66381;BME280;53177;52.648;1.214;2023-08-20T01:19:53;101380.56;;;15.76;100.00
66381;BME280;53177;52.648;1.214;2023-08-20T01:28:30;101375.59;;;15.66;100.00
66381;BME280;53177;52.648;1.214;2023-08-20T01:31:02;101372.03;;;15.67;100.00
66381;BME280;53177;52.648;1.214;2023-08-20T01:33:35;101369.34;;;15.67;100.00
66381;BME280;53177;52.648;1.214;2023-08-20T01:36:08;101362.78;;;15.77;100.00
66381;BME280;53177;52.648;1.214;2023-08-20T01:38:37;101371.66;;;15.77;100.00
66381;BME280;53177;52.648;1.214;2023-08-20T01:41:06;101367.47;;;15.70;100.00
66381;BME280;53177;52.648;1.214;2023-08-20T01:43:34;101363.72;;;15.74;100.00
66381;BME280;53177;52.648;1.214;2023-08-20T01:46:02;101374.94;;;15.59;100.00
66381;BME280;53177;52.648;1.214;2023-08-20T01:48:29;101383.13;;;15.53;100.00
66381;BME280;53177;52.648;1.214;2023-08-20T01:51:00;101383.09;;;15.54;100.00
66381;BME280;53177;52.648;1.214;2023-08-20T01:53:29;101386.25;;;15.38;100.00
66381;BME280;53177;52.648;1.214;2023-08-20T01:55:57;101390.41;;;15.46;100.00
66381;BME280;53177;52.648;1.214;2023-08-20T01:58:24;101401.31;;;15.39;100.00
66381;BME280;53177;52.648;1.214;2023-08-20T02:00:52;101401.06;;;15.46;100.00
66381;BME280;53177;52.648;1.214;2023-08-20T02:03:20;101402.44;;;15.32;100.00
66381;BME280;53177;52.648;1.214;2023-08-20T02:05:49;101412.19;;;15.33;100.00
66381;BME280;53177;52.648;1.214;2023-08-20T02:08:17;101414.34;;;15.20;100.00
66381;BME280;53177;52.648;1.214;2023-08-20T02:10:45;101417.88;;;15.21;100.00
66381;BME280;53177;52.648;1.214;2023-08-20T02:13:14;101422.00;;;15.31;100.00
66381;BME280;53177;52.648;1.214;2023-08-20T02:15:42;101416.66;;;15.31;100.00
66381;BME280;53177;52.648;1.214;2023-08-20T02:18:10;101409.56;;;15.31;100.00
66381;BME280;53177;52.648;1.214;2023-08-20T02:20:37;101419.56;;;15.23;100.00
66381;BME280;53177;52.648;1.214;2023-08-20T02:23:08;101421.91;;;15.34;100.00
66381;BME280;53177;52.648;1.214;2023-08-20T02:25:38;101419.47;;;15.26;100.00
66381;BME280;53177;52.648;1.214;2023-08-20T02:28:06;101423.25;;;15.19;100.00
66381;BME280;53177;52.648;1.214;2023-08-20T02:30:47;101422.22;;;15.23;100.00
66381;BME280;53177;52.648;1.214;2023-08-20T02:33:15;101423.22;;;15.21;100.00
66381;BME280;53177;52.648;1.214;2023-08-20T02:35:43;101426.34;;;15.05;100.00
66381;BME280;53177;52.648;1.214;2023-08-20T02:38:11;101422.75;;;15.06;100.00
66381;BME280;53177;52.648;1.214;2023-08-20T02:40:42;101422.88;;;15.02;100.00
66381;BME280;53177;52.648;1.214;2023-08-20T02:43:10;101435.84;;;15.14;100.00
66381;BME280;53177;52.648;1.214;2023-08-20T02:45:42;101438.09;;;15.28;100.00
66381;BME280;53177;52.648;1.214;2023-08-20T02:48:14;101443.31;;;15.31;100.00
66381;BME280;53177;52.648;1.214;2023-08-20T02:50:42;101440.56;;;15.34;100.00
66381;BME280;53177;52.648;1.214;2023-08-20T02:53:15;101435.00;;;15.41;100.00
66381;BME280;53177;52.648;1.214;2023-08-20T02:55:43;101424.91;;;15.23;100.00
66381;BME280;53177;52.648;1.214;2023-08-20T02:58:11;101430.44;;;15.16;100.00
66381;BME280;53177;52.648;1.214;2023-08-20T03:00:41;101428.28;;;15.30;100.00
66381;BME280;53177;52.648;1.214;2023-08-20T03:03:10;101429.75;;;15.38;100.00
66381;BME280;53177;52.648;1.214;2023-08-20T03:05:38;101441.63;;;15.28;100.00
66381;BME280;53177;52.648;1.214;2023-08-20T03:08:06;101438.06;;;15.00;100.00
66381;BME280;53177;52.648;1.214;2023-08-20T03:10:38;101438.22;;;14.94;100.00
66381;BME280;53177;52.648;1.214;2023-08-20T03:13:06;101445.16;;;14.99;100.00
66381;BME280;53177;52.648;1.214;2023-08-20T03:15:34;101446.84;;;15.02;100.00
66381;BME280;53177;52.648;1.214;2023-08-20T03:18:02;101436.19;;;15.02;100.00
66381;BME280;53177;52.648;1.214;2023-08-20T03:20:30;101437.53;;;15.17;100.00
66381;BME280;53177;52.648;1.214;2023-08-20T03:22:59;101437.22;;;14.98;100.00
66381;BME280;53177;52.648;1.214;2023-08-20T03:25:27;101433.06;;;14.88;100.00
66381;BME280;53177;52.648;1.214;2023-08-20T03:27:58;101439.19;;;14.91;100.00
66381;BME280;53177;52.648;1.214;2023-08-20T03:30:26;101436.78;;;14.82;100.00
66381;BME280;53177;52.648;1.214;2023-08-20T03:32:55;101437.66;;;14.83;100.00
66381;BME280;53177;52.648;1.214;2023-08-20T03:35:23;101439.44;;;14.82;100.00
66381;BME280;53177;52.648;1.214;2023-08-20T03:37:51;101450.25;;;14.78;100.00
66381;BME280;53177;52.648;1.214;2023-08-20T03:40:22;101451.28;;;14.72;100.00
66381;BME280;53177;52.648;1.214;2023-08-20T03:42:50;101450.28;;;14.76;100.00
66381;BME280;53177;52.648;1.214;2023-08-20T03:45:22;101457.91;;;14.56;100.00
66381;BME280;53177;52.648;1.214;2023-08-20T03:47:53;101459.16;;;14.44;100.00
66381;BME280;53177;52.648;1.214;2023-08-20T03:50:22;101459.97;;;14.46;100.00
66381;BME280;53177;52.648;1.214;2023-08-20T03:52:58;101460.00;;;14.45;100.00
66381;BME280;53177;52.648;1.214;2023-08-20T03:55:26;101453.84;;;14.43;100.00
66381;BME280;53177;52.648;1.214;2023-08-20T03:57:54;101451.09;;;14.46;100.00
66381;BME280;53177;52.648;1.214;2023-08-20T04:00:24;101449.34;;;14.45;100.00
66381;BME280;53177;52.648;1.214;2023-08-20T04:02:56;101455.25;;;14.56;100.00
66381;BME280;53177;52.648;1.214;2023-08-20T04:05:25;101459.75;;;14.55;100.00
66381;BME280;53177;52.648;1.214;2023-08-20T04:07:58;101454.34;;;14.57;100.00
66381;BME280;53177;52.648;1.214;2023-08-20T04:10:29;101462.50;;;14.51;100.00
66381;BME280;53177;52.648;1.214;2023-08-20T04:12:59;101458.41;;;14.38;100.00
66381;BME280;53177;52.648;1.214;2023-08-20T04:15:36;101463.09;;;14.27;100.00
66381;BME280;53177;52.648;1.214;2023-08-20T04:18:03;101463.25;;;14.22;100.00
66381;BME280;53177;52.648;1.214;2023-08-20T04:20:31;101469.41;;;14.24;100.00
66381;BME280;53177;52.648;1.214;2023-08-20T04:23:05;101463.19;;;14.24;100.00
66381;BME280;53177;52.648;1.214;2023-08-20T04:25:33;101465.91;;;14.22;100.00
66381;BME280;53177;52.648;1.214;2023-08-20T04:28:03;101471.19;;;14.24;100.00
66381;BME280;53177;52.648;1.214;2023-08-20T04:30:31;101466.81;;;14.21;100.00
66381;BME280;53177;52.648;1.214;2023-08-20T04:32:59;101465.78;;;14.27;100.00
66381;BME280;53177;52.648;1.214;2023-08-20T04:35:27;101475.59;;;14.25;100.00
66381;BME280;53177;52.648;1.214;2023-08-20T04:37:56;101476.78;;;14.13;100.00
66381;BME280;53177;52.648;1.214;2023-08-20T04:40:30;101467.97;;;14.11;100.00
66381;BME280;53177;52.648;1.214;2023-08-20T04:42:59;101477.81;;;14.07;100.00
66381;BME280;53177;52.648;1.214;2023-08-20T04:45:33;101476.00;;;14.08;100.00
66381;BME280;53177;52.648;1.214;2023-08-20T04:48:01;101469.69;;;14.12;100.00
66381;BME280;53177;52.648;1.214;2023-08-20T04:50:29;101479.69;;;14.02;100.00
66381;BME280;53177;52.648;1.214;2023-08-20T04:52:57;101474.38;;;14.04;100.00
66381;BME280;53177;52.648;1.214;2023-08-20T04:55:30;101471.72;;;14.02;100.00
66381;BME280;53177;52.648;1.214;2023-08-20T04:57:58;101470.94;;;13.99;100.00
66381;BME280;53177;52.648;1.214;2023-08-20T05:00:26;101476.09;;;14.05;100.00
66381;BME280;53177;52.648;1.214;2023-08-20T05:02:54;101481.47;;;14.02;100.00
66381;BME280;53177;52.648;1.214;2023-08-20T05:05:23;101494.00;;;13.98;100.00
66381;BME280;53177;52.648;1.214;2023-08-20T05:07:52;101487.66;;;14.04;100.00
66381;BME280;53177;52.648;1.214;2023-08-20T05:10:20;101489.28;;;14.09;100.00
66381;BME280;53177;52.648;1.214;2023-08-20T05:12:48;101494.75;;;14.03;100.00
66381;BME280;53177;52.648;1.214;2023-08-20T05:15:17;101500.09;;;14.02;100.00
66381;BME280;53177;52.648;1.214;2023-08-20T05:17:47;101504.41;;;14.07;100.00
66381;BME280;53177;52.648;1.214;2023-08-20T05:20:15;101506.28;;;14.04;100.00
66381;BME280;53177;52.648;1.214;2023-08-20T05:22:46;101513.25;;;14.08;100.00
66381;BME280;53177;52.648;1.214;2023-08-20T05:25:18;101502.59;;;14.08;100.00
66381;BME280;53177;52.648;1.214;2023-08-20T05:27:47;101510.44;;;14.14;100.00
66381;BME280;53177;52.648;1.214;2023-08-20T05:30:20;101506.91;;;14.13;100.00
66381;BME280;53177;52.648;1.214;2023-08-20T05:32:48;101511.34;;;14.14;100.00
66381;BME280;53177;52.648;1.214;2023-08-20T05:35:17;101513.00;;;14.19;100.00
66381;BME280;53177;52.648;1.214;2023-08-20T05:37:52;101514.69;;;14.23;100.00
66381;BME280;53177;52.648;1.214;2023-08-20T05:40:20;101514.53;;;14.27;100.00
66381;BME280;53177;52.648;1.214;2023-08-20T05:42:48;101511.88;;;14.27;100.00
66381;BME280;53177;52.648;1.214;2023-08-20T05:45:16;101517.09;;;14.32;100.00
66381;BME280;53177;52.648;1.214;2023-08-20T05:47:44;101525.00;;;14.36;100.00
66381;BME280;53177;52.648;1.214;2023-08-20T05:50:17;101519.50;;;14.42;100.00
66381;BME280;53177;52.648;1.214;2023-08-20T05:52:46;101519.44;;;14.45;100.00
66381;BME280;53177;52.648;1.214;2023-08-20T05:55:17;101522.03;;;14.48;100.00
66381;BME280;53177;52.648;1.214;2023-08-20T05:57:46;101519.22;;;14.53;100.00
66381;BME280;53177;52.648;1.214;2023-08-20T06:00:14;101516.53;;;14.54;100.00
66381;BME280;53177;52.648;1.214;2023-08-20T06:02:43;101519.03;;;14.60;100.00
66381;BME280;53177;52.648;1.214;2023-08-20T06:05:27;101520.69;;;14.65;100.00
66381;BME280;53177;52.648;1.214;2023-08-20T06:07:55;101532.19;;;14.67;100.00
66381;BME280;53177;52.648;1.214;2023-08-20T06:10:26;101519.63;;;14.72;100.00
66381;BME280;53177;52.648;1.214;2023-08-20T06:12:57;101530.19;;;14.75;100.00
66381;BME280;53177;52.648;1.214;2023-08-20T06:15:25;101534.47;;;14.82;100.00
66381;BME280;53177;52.648;1.214;2023-08-20T06:17:56;101531.63;;;14.86;100.00
66381;BME280;53177;52.648;1.214;2023-08-20T06:20:24;101532.50;;;14.88;100.00
66381;BME280;53177;52.648;1.214;2023-08-20T06:22:53;101539.53;;;14.89;100.00
66381;BME280;53177;52.648;1.214;2023-08-20T06:25:23;101540.41;;;14.90;100.00
66381;BME280;53177;52.648;1.214;2023-08-20T06:27:55;101537.53;;;14.99;100.00
66381;BME280;53177;52.648;1.214;2023-08-20T06:30:24;101536.34;;;15.09;100.00
66381;BME280;53177;52.648;1.214;2023-08-20T06:32:55;101534.59;;;15.08;100.00
66381;BME280;53177;52.648;1.214;2023-08-20T06:35:24;101536.25;;;15.12;100.00
66381;BME280;53177;52.648;1.214;2023-08-20T06:37:52;101538.75;;;15.18;100.00
66381;BME280;53177;52.648;1.214;2023-08-20T06:40:25;101549.22;;;15.24;100.00
66381;BME280;53177;52.648;1.214;2023-08-20T06:42:57;101549.00;;;15.32;100.00
66381;BME280;53177;52.648;1.214;2023-08-20T06:45:28;101547.91;;;15.39;100.00
66381;BME280;53177;52.648;1.214;2023-08-20T06:47:56;101568.94;;;15.49;100.00
66381;BME280;53177;52.648;1.214;2023-08-20T06:50:28;101566.19;;;15.52;100.00
66381;BME280;53177;52.648;1.214;2023-08-20T06:53:05;101562.53;;;15.56;100.00
66381;BME280;53177;52.648;1.214;2023-08-20T06:55:38;101565.84;;;15.65;100.00
66381;BME280;53177;52.648;1.214;2023-08-20T06:58:07;101569.25;;;15.70;100.00
66381;BME280;53177;52.648;1.214;2023-08-20T07:00:38;101565.56;;;15.74;100.00
66381;BME280;53177;52.648;1.214;2023-08-20T07:03:07;101562.59;;;15.83;100.00
66381;BME280;53177;52.648;1.214;2023-08-20T07:05:35;101558.16;;;15.83;100.00
66381;BME280;53177;52.648;1.214;2023-08-20T07:08:06;101566.78;;;15.91;100.00
66381;BME280;53177;52.648;1.214;2023-08-20T07:10:38;101567.56;;;15.95;100.00
66381;BME280;53177;52.648;1.214;2023-08-20T07:13:06;101572.59;;;16.04;100.00
66381;BME280;53177;52.648;1.214;2023-08-20T07:15:34;101574.13;;;16.13;100.00
66381;BME280;53177;52.648;1.214;2023-08-20T07:18:07;101579.88;;;16.27;100.00
66381;BME280;53177;52.648;1.214;2023-08-20T07:20:42;101580.53;;;16.33;100.00
66381;BME280;53177;52.648;1.214;2023-08-20T07:23:11;101589.28;;;16.38;100.00
66381;BME280;53177;52.648;1.214;2023-08-20T07:25:42;101588.94;;;16.49;100.00
66381;BME280;53177;52.648;1.214;2023-08-20T07:28:11;101583.34;;;16.58;100.00
66381;BME280;53177;52.648;1.214;2023-08-20T07:30:41;101595.56;;;16.65;100.00
66381;BME280;53177;52.648;1.214;2023-08-20T07:33:09;101590.59;;;16.79;100.00
66381;BME280;53177;52.648;1.214;2023-08-20T07:35:43;101597.38;;;16.89;100.00
66381;BME280;53177;52.648;1.214;2023-08-20T07:38:12;101597.97;;;16.97;100.00
66381;BME280;53177;52.648;1.214;2023-08-20T07:40:46;101599.50;;;17.04;100.00
66381;BME280;53177;52.648;1.214;2023-08-20T07:43:14;101607.41;;;17.08;100.00
66381;BME280;53177;52.648;1.214;2023-08-20T07:45:44;101603.91;;;17.07;100.00
66381;BME280;53177;52.648;1.214;2023-08-20T07:48:13;101611.34;;;16.97;100.00
66381;BME280;53177;52.648;1.214;2023-08-20T07:50:41;101612.41;;;17.18;100.00
66381;BME280;53177;52.648;1.214;2023-08-20T07:53:09;101615.47;;;17.32;100.00
66381;BME280;53177;52.648;1.214;2023-08-20T07:55:40;101610.72;;;17.40;100.00
66381;BME280;53177;52.648;1.214;2023-08-20T07:58:10;101614.91;;;17.47;100.00
66381;BME280;53177;52.648;1.214;2023-08-20T08:00:39;101620.16;;;17.49;100.00
66381;BME280;53177;52.648;1.214;2023-08-20T08:03:05;101623.97;;;17.43;100.00
66381;BME280;53177;52.648;1.214;2023-08-20T08:05:30;101617.50;;;17.49;100.00
66381;BME280;53177;52.648;1.214;2023-08-20T08:07:56;101618.22;;;17.54;100.00
66381;BME280;53177;52.648;1.214;2023-08-20T08:10:22;101621.56;;;17.61;100.00
66381;BME280;53177;52.648;1.214;2023-08-20T08:12:48;101620.75;;;17.82;100.00
66381;BME280;53177;52.648;1.214;2023-08-20T08:15:14;101616.00;;;18.12;100.00
66381;BME280;53177;52.648;1.214;2023-08-20T08:17:39;101614.78;;;18.20;98.13
66381;BME280;53177;52.648;1.214;2023-08-20T08:20:06;101618.34;;;18.42;96.34
66381;BME280;53177;52.648;1.214;2023-08-20T08:22:31;101630.41;;;18.31;94.26
66381;BME280;53177;52.648;1.214;2023-08-20T08:24:57;101626.84;;;18.09;95.33
66381;BME280;53177;52.648;1.214;2023-08-20T08:27:23;101629.22;;;18.16;96.06
66381;BME280;53177;52.648;1.214;2023-08-20T08:29:48;101620.63;;;18.30;95.75
66381;BME280;53177;52.648;1.214;2023-08-20T08:32:13;101625.25;;;18.48;94.51
66381;BME280;53177;52.648;1.214;2023-08-20T08:34:39;101628.19;;;18.42;94.95
66381;BME280;53177;52.648;1.214;2023-08-20T08:37:04;101622.78;;;18.43;93.60
66381;BME280;53177;52.648;1.214;2023-08-20T08:39:29;101624.25;;;18.51;93.82
66381;BME280;53177;52.648;1.214;2023-08-20T08:42:00;101623.34;;;18.52;93.33
66381;BME280;53177;52.648;1.214;2023-08-20T08:44:28;101622.06;;;18.38;93.31
66381;BME280;53177;52.648;1.214;2023-08-20T08:46:53;101621.22;;;18.15;94.37
66381;BME280;53177;52.648;1.214;2023-08-20T08:49:19;101629.22;;;18.16;95.30
66381;BME280;53177;52.648;1.214;2023-08-20T08:51:44;101624.63;;;18.20;94.46
66381;BME280;53177;52.648;1.214;2023-08-20T08:54:12;101625.81;;;18.34;94.54
66381;BME280;53177;52.648;1.214;2023-08-20T08:56:39;101627.47;;;18.37;94.77
66381;BME280;53177;52.648;1.214;2023-08-20T08:59:04;101630.44;;;18.53;93.88
66381;BME280;53177;52.648;1.214;2023-08-20T09:01:30;101628.00;;;18.68;92.35
66381;BME280;53177;52.648;1.214;2023-08-20T09:03:56;101629.13;;;18.84;91.95
66381;BME280;53177;52.648;1.214;2023-08-20T09:06:21;101623.94;;;19.40;89.26
66381;BME280;53177;52.648;1.214;2023-08-20T09:08:47;101631.53;;;19.71;87.71
66381;BME280;53177;52.648;1.214;2023-08-20T09:11:12;101619.38;;;20.02;83.01
66381;BME280;53177;52.648;1.214;2023-08-20T09:13:39;101620.28;;;19.82;84.02
66381;BME280;53177;52.648;1.214;2023-08-20T09:16:11;101624.69;;;19.64;83.95
66381;BME280;53177;52.648;1.214;2023-08-20T09:18:40;101636.47;;;19.41;84.78
66381;BME280;53177;52.648;1.214;2023-08-20T09:21:10;101633.84;;;19.20;85.75
66381;BME280;53177;52.648;1.214;2023-08-20T09:23:36;101636.97;;;19.09;86.14
66381;BME280;53177;52.648;1.214;2023-08-20T09:26:03;101635.72;;;19.18;86.26
66381;BME280;53177;52.648;1.214;2023-08-20T09:28:31;101637.38;;;19.20;85.98
66381;BME280;53177;52.648;1.214;2023-08-20T09:31:05;101630.81;;;19.48;85.94
66381;BME280;53177;52.648;1.214;2023-08-20T09:33:30;101629.00;;;19.68;83.39
66381;BME280;53177;52.648;1.214;2023-08-20T09:35:56;101627.41;;;19.83;84.08
66381;BME280;53177;52.648;1.214;2023-08-20T09:38:22;101627.31;;;20.22;80.79
66381;BME280;53177;52.648;1.214;2023-08-20T09:40:50;101626.16;;;20.99;79.80
66381;BME280;53177;52.648;1.214;2023-08-20T09:43:19;101629.31;;;21.07;77.42
66381;BME280;53177;52.648;1.214;2023-08-20T09:45:47;101621.91;;;21.29;75.93
66381;BME280;53177;52.648;1.214;2023-08-20T09:48:18;101622.75;;;20.61;78.33
66381;BME280;53177;52.648;1.214;2023-08-20T09:50:47;101621.47;;;20.32;79.97
66381;BME280;53177;52.648;1.214;2023-08-20T09:53:31;101625.25;;;20.10;80.16
66381;BME280;53177;52.648;1.214;2023-08-20T09:56:09;101619.88;;;19.91;80.81
66381;BME280;53177;52.648;1.214;2023-08-20T09:58:37;101618.69;;;19.78;82.21
66381;BME280;53177;52.648;1.214;2023-08-20T10:01:03;101615.06;;;19.79;81.74
66381;BME280;53177;52.648;1.214;2023-08-20T10:03:30;101621.88;;;19.67;80.93
66381;BME280;53177;52.648;1.214;2023-08-20T10:05:56;101619.06;;;20.26;80.01
66381;BME280;53177;52.648;1.214;2023-08-20T10:08:23;101614.38;;;20.84;79.87
66381;BME280;53177;52.648;1.214;2023-08-20T10:10:49;101612.44;;;21.55;77.66
66381;BME280;53177;52.648;1.214;2023-08-20T10:13:15;101606.91;;;22.07;75.32
66381;BME280;53177;52.648;1.214;2023-08-20T10:15:41;101607.78;;;22.23;73.18
66381;BME280;53177;52.648;1.214;2023-08-20T10:18:07;101611.94;;;22.44;73.18
66381;BME280;53177;52.648;1.214;2023-08-20T10:20:33;101615.22;;;21.87;74.11
66381;BME280;53177;52.648;1.214;2023-08-20T10:23:03;101618.81;;;21.70;75.01
66381;BME280;53177;52.648;1.214;2023-08-20T10:25:29;101611.38;;;21.42;76.45
66381;BME280;53177;52.648;1.214;2023-08-20T10:28:11;101616.09;;;21.03;76.70
66381;BME280;53177;52.648;1.214;2023-08-20T10:30:37;101615.63;;;20.77;77.12
66381;BME280;53177;52.648;1.214;2023-08-20T10:33:03;101618.69;;;20.70;79.72
66381;BME280;53177;52.648;1.214;2023-08-20T10:35:48;101615.63;;;20.60;76.65
66381;BME280;53177;52.648;1.214;2023-08-20T10:38:16;101609.88;;;21.36;76.21
66381;BME280;53177;52.648;1.214;2023-08-20T10:48:31;101620.91;;;21.32;72.09
66381;BME280;53177;52.648;1.214;2023-08-20T10:50:57;101625.41;;;21.14;72.53
66381;BME280;53177;52.648;1.214;2023-08-20T10:53:23;101627.00;;;21.35;72.68
66381;BME280;53177;52.648;1.214;2023-08-20T10:55:49;101624.72;;;21.61;68.33
66381;BME280;53177;52.648;1.214;2023-08-20T10:58:15;101625.53;;;22.27;69.34
66381;BME280;53177;52.648;1.214;2023-08-20T11:00:41;101634.06;;;22.35;64.97
66381;BME280;53177;52.648;1.214;2023-08-20T11:03:08;101627.59;;;22.22;63.58
66381;BME280;53177;52.648;1.214;2023-08-20T11:05:33;101628.31;;;22.41;64.41
66381;BME280;53177;52.648;1.214;2023-08-20T11:07:59;101622.97;;;22.87;65.69
66381;BME280;53177;52.648;1.214;2023-08-20T11:10:25;101627.56;;;23.14;62.05
66381;BME280;53177;52.648;1.214;2023-08-20T11:12:51;101635.22;;;22.92;62.03
66381;BME280;53177;52.648;1.214;2023-08-20T11:15:17;101626.78;;;22.98;61.98
66381;BME280;53177;52.648;1.214;2023-08-20T11:17:44;101627.78;;;23.25;62.51
66381;BME280;53177;52.648;1.214;2023-08-20T11:20:13;101627.81;;;23.40;65.24
66381;BME280;53177;52.648;1.214;2023-08-20T11:22:40;101627.75;;;22.66;63.78
66381;BME280;53177;52.648;1.214;2023-08-20T11:25:10;101623.00;;;22.40;67.99
66381;BME280;53177;52.648;1.214;2023-08-20T11:27:40;101621.78;;;22.29;66.36
66381;BME280;53177;52.648;1.214;2023-08-20T11:30:06;101620.47;;;22.84;65.66
66381;BME280;53177;52.648;1.214;2023-08-20T11:32:33;101627.31;;;23.33;62.61
66381;BME280;53177;52.648;1.214;2023-08-20T11:34:58;101620.72;;;23.81;63.75
66381;BME280;53177;52.648;1.214;2023-08-20T11:37:24;101615.81;;;23.59;59.81
66381;BME280;53177;52.648;1.214;2023-08-20T11:39:50;101615.25;;;23.68;60.92
66381;BME280;53177;52.648;1.214;2023-08-20T11:42:16;101609.41;;;24.03;59.52
66381;BME280;53177;52.648;1.214;2023-08-20T11:44:45;101612.63;;;23.53;59.49
66381;BME280;53177;52.648;1.214;2023-08-20T11:47:17;101608.25;;;22.76;66.43
66381;BME280;53177;52.648;1.214;2023-08-20T11:49:43;101609.47;;;22.87;62.70
66381;BME280;53177;52.648;1.214;2023-08-20T11:52:09;101611.25;;;23.02;60.48
66381;BME280;53177;52.648;1.214;2023-08-20T11:54:35;101611.84;;;23.51;59.70
66381;BME280;53177;52.648;1.214;2023-08-20T11:57:03;101611.06;;;23.63;60.71
66381;BME280;53177;52.648;1.214;2023-08-20T11:59:28;101618.78;;;23.69;58.48
66381;BME280;53177;52.648;1.214;2023-08-20T12:01:58;101608.66;;;24.01;58.97
66381;BME280;53177;52.648;1.214;2023-08-20T12:04:26;101623.78;;;24.03;56.99
66381;BME280;53177;52.648;1.214;2023-08-20T12:09:33;101614.13;;;23.99;57.38
66381;BME280;53177;52.648;1.214;2023-08-20T12:11:58;101617.25;;;23.21;58.38
66381;BME280;53177;52.648;1.214;2023-08-20T12:14:24;101614.81;;;23.02;62.67
66381;BME280;53177;52.648;1.214;2023-08-20T12:16:50;101609.13;;;23.07;63.90
66381;BME280;53177;52.648;1.214;2023-08-20T12:19:19;101607.22;;;23.09;65.19
66381;BME280;53177;52.648;1.214;2023-08-20T12:21:44;101609.28;;;23.34;64.81
66381;BME280;53177;52.648;1.214;2023-08-20T12:24:12;101605.00;;;23.45;61.50
66381;BME280;53177;52.648;1.214;2023-08-20T12:26:39;101608.13;;;23.23;58.32
66381;BME280;53177;52.648;1.214;2023-08-20T12:29:04;101597.78;;;23.60;62.13
66381;BME280;53177;52.648;1.214;2023-08-20T12:31:31;101596.88;;;24.16;60.59
66381;BME280;53177;52.648;1.214;2023-08-20T12:33:57;101595.56;;;24.36;58.10
66381;BME280;53177;52.648;1.214;2023-08-20T12:36:22;101588.66;;;24.71;59.19
66381;BME280;53177;52.648;1.214;2023-08-20T12:38:47;101579.38;;;24.75;55.11
66381;BME280;53177;52.648;1.214;2023-08-20T12:41:13;101585.13;;;24.83;55.91
66381;BME280;53177;52.648;1.214;2023-08-20T12:43:38;101579.69;;;24.70;58.64
66381;BME280;53177;52.648;1.214;2023-08-20T12:46:04;101583.13;;;24.72;54.44
66381;BME280;53177;52.648;1.214;2023-08-20T12:48:29;101584.34;;;24.81;50.69
66381;BME280;53177;52.648;1.214;2023-08-20T12:50:55;101572.66;;;24.81;51.61
66381;BME280;53177;52.648;1.214;2023-08-20T12:53:21;101581.72;;;24.67;54.03
66381;BME280;53177;52.648;1.214;2023-08-20T12:55:46;101577.63;;;24.35;51.41
66381;BME280;53177;52.648;1.214;2023-08-20T12:58:12;101577.91;;;24.57;54.40
66381;BME280;53177;52.648;1.214;2023-08-20T13:00:37;101577.19;;;24.41;52.74
66381;BME280;53177;52.648;1.214;2023-08-20T13:03:03;101572.88;;;24.78;55.23
66381;BME280;53177;52.648;1.214;2023-08-20T13:05:29;101577.63;;;25.26;54.77
66381;BME280;53177;52.648;1.214;2023-08-20T13:07:55;101575.38;;;25.45;53.28
66381;BME280;53177;52.648;1.214;2023-08-20T13:10:21;101574.13;;;25.87;51.90
66381;BME280;53177;52.648;1.214;2023-08-20T13:12:49;101582.41;;;25.73;48.72